Famagusta, Cyprus
Current Conditions -  °F | °C
As of 5:20 PM on Saturday 25 Oct 2014 (Local Time) from LCEN Reporting Station
Scattered Clouds Scattered Clouds  
Wind Chill: 26°   Ceiling: Unl
Heat Index: 26°   Visibility: 6mi
Dew Point: 12°   Wind: 12mph
Humidity: 42%   Direction: 190°S
Pressure: 29.91"   Gusts: NA
Location:  35.33°N, 34.07°E
Report Text: LCEN 251420Z 19010KT 9999 FEW025CB SCT030 26/12 Q1013 NOSIG
Loading
Personal Weather Stations






























Interactive Weather Map
Tropical Storm Tracking
New forecast layout! Learn more

10-Day Weather Forecast

Advertisements
Track Severe Weather on mobile